Time;durP1;ratioP1;P1;durP2;ratioP2;P2;SDS_P1;SDS_P2;PMS_P1;PMS_P2;Temp;Humidity;BMP_temperature;BMP_pressure;BME280_temperature;BME280_humidity;BME280_pressure;Samples;Min_cycle;Max_cycle;Signal;HPM_P1;HPM_P2
2021/10/08 00:01:44;;;;;;;8.60;5.50;;;11.10;97.30;;;;;;5075217;28;20243;-82
2021/10/08 00:04:09;;;;;;;15.27;7.10;;;11.10;97.30;;;;;;5076769;28;20167;-83
2021/10/08 00:06:35;;;;;;;12.53;6.50;;;11.10;97.30;;;;;;5075192;28;20175;-83
2021/10/08 00:09:00;;;;;;;15.33;7.70;;;11.20;97.30;;;;;;5076114;28;20183;-83
2021/10/08 00:11:26;;;;;;;11.43;6.73;;;11.20;97.30;;;;;;5076327;28;20221;-84
2021/10/08 00:13:53;;;;;;;13.10;7.57;;;11.20;97.30;;;;;;5076310;28;20225;-83
2021/10/08 00:16:19;;;;;;;21.83;8.37;;;11.20;97.30;;;;;;5075690;28;20489;-83
2021/10/08 00:18:44;;;;;;;11.87;6.60;;;11.20;97.30;;;;;;5075341;28;20516;-83
2021/10/08 00:21:10;;;;;;;13.07;7.10;;;11.30;97.30;;;;;;5074908;28;20245;-83
2021/10/08 00:23:37;;;;;;;16.10;7.33;;;11.30;97.30;;;;;;5074408;28;20634;-84
2021/10/08 00:26:03;;;;;;;17.57;8.20;;;11.30;97.30;;;;;;5074386;28;20174;-83
2021/10/08 00:28:28;;;;;;;12.10;6.60;;;11.30;97.30;;;;;;5074492;28;20480;-82
2021/10/08 00:30:54;;;;;;;14.90;6.90;;;11.40;97.30;;;;;;5074705;28;20448;-83
2021/10/08 00:33:20;;;;;;;12.70;6.63;;;11.40;97.30;;;;;;5075384;28;20229;-83
2021/10/08 00:35:46;;;;;;;13.07;7.07;;;11.40;97.30;;;;;;5075156;28;20464;-82
2021/10/08 00:38:11;;;;;;;14.60;7.00;;;11.40;97.30;;;;;;5075718;28;20244;-83
2021/10/08 00:40:44;;;;;;;11.43;6.70;;;11.40;97.30;;;;;;5074836;28;20191;-80
2021/10/08 00:43:10;;;;;;;15.20;7.03;;;11.40;97.30;;;;;;5074355;28;20668;-82
2021/10/08 00:45:37;;;;;;;13.80;6.40;;;11.40;97.30;;;;;;5075466;28;20413;-83
2021/10/08 00:48:07;;;;;;;15.30;6.67;;;11.50;97.30;;;;;;5073035;28;20179;-83
2021/10/08 00:50:38;;;;;;;13.63;7.50;;;11.50;97.30;;;;;;5073408;28;20442;-83
2021/10/08 00:53:04;;;;;;;15.63;6.90;;;11.50;97.30;;;;;;5073461;28;20423;-82
2021/10/08 00:55:30;;;;;;;12.37;6.70;;;11.50;97.30;;;;;;5073907;28;20510;-83
2021/10/08 00:57:56;;;;;;;13.37;6.37;;;11.50;97.30;;;;;;5075530;28;20409;-84
2021/10/08 01:00:22;;;;;;;13.23;6.57;;;11.50;97.30;;;;;;5076745;28;20194;-84
2021/10/08 01:02:47;;;;;;;15.30;6.83;;;11.50;97.30;;;;;;5075166;28;20406;-83
2021/10/08 01:05:13;;;;;;;12.50;6.80;;;11.50;97.30;;;;;;5073857;28;20175;-85
2021/10/08 01:07:39;;;;;;;12.73;7.00;;;11.50;97.30;;;;;;5074051;28;20238;-84
2021/10/08 01:10:07;;;;;;;10.23;6.23;;;11.50;97.30;;;;;;5073379;28;20195;-83
2021/10/08 01:12:34;;;;;;;13.57;6.50;;;11.50;97.30;;;;;;5073441;28;20420;-84
2021/10/08 01:14:59;;;;;;;17.40;7.40;;;11.50;97.30;;;;;;5073412;28;20450;-84
2021/10/08 01:17:25;;;;;;;11.80;6.63;;;11.50;97.30;;;;;;5073812;28;20772;-83
2021/10/08 01:19:52;;;;;;;12.70;6.50;;;11.50;97.30;;;;;;5074669;28;20187;-81
2021/10/08 01:22:18;;;;;;;12.77;6.57;;;11.50;97.30;;;;;;5074853;28;20502;-83
2021/10/08 01:24:43;;;;;;;10.60;6.60;;;11.50;97.30;;;;;;5074796;28;20405;-82
2021/10/08 01:27:09;;;;;;;12.53;6.27;;;11.50;97.30;;;;;;5073790;28;20414;-83
2021/10/08 01:29:53;;;;;;;9.60;6.03;;;11.50;97.30;;;;;;5075494;28;20183;-83
2021/10/08 01:32:20;;;;;;;11.70;6.20;;;11.50;97.30;;;;;;5074465;28;20622;-81
2021/10/08 01:34:46;;;;;;;11.97;6.80;;;11.50;97.30;;;;;;5072667;28;20464;-84
2021/10/08 01:37:12;;;;;;;13.67;6.43;;;11.50;97.30;;;;;;5073128;28;20421;-83
2021/10/08 01:39:38;;;;;;;14.73;7.20;;;11.50;97.30;;;;;;5074316;28;20417;-84
2021/10/08 01:42:03;;;;;;;11.93;6.60;;;11.50;97.30;;;;;;5073839;28;20447;-81
2021/10/08 01:44:29;;;;;;;10.83;6.13;;;11.50;97.30;;;;;;5074475;28;20175;-83
2021/10/08 01:46:54;;;;;;;11.93;6.57;;;11.50;97.30;;;;;;5074360;28;20183;-83
2021/10/08 01:49:20;;;;;;;12.07;6.33;;;11.50;97.30;;;;;;5073659;28;20179;-83
2021/10/08 01:51:45;;;;;;;14.40;7.10;;;11.50;97.30;;;;;;5075060;28;20175;-83
2021/10/08 01:54:11;;;;;;;15.10;7.17;;;11.50;97.30;;;;;;5073563;28;20305;-84
2021/10/08 01:56:40;;;;;;;13.00;7.13;;;11.50;97.30;;;;;;5072423;28;20179;-82
2021/10/08 01:59:06;;;;;;;9.60;6.23;;;11.60;97.30;;;;;;5072687;28;20175;-83
2021/10/08 02:01:32;;;;;;;14.87;6.50;;;11.60;97.30;;;;;;5074175;28;20586;-83
2021/10/08 02:03:58;;;;;;;10.60;5.80;;;11.60;97.30;;;;;;5072571;28;20179;-84
2021/10/08 02:06:23;;;;;;;13.40;7.40;;;11.60;97.30;;;;;;5072785;28;20443;-81
2021/10/08 02:08:49;;;;;;;13.37;6.83;;;11.60;97.30;;;;;;5073987;28;20179;-80
2021/10/08 02:11:14;;;;;;;10.80;7.00;;;11.60;97.30;;;;;;5073906;28;20255;-81
2021/10/08 02:13:40;;;;;;;12.73;6.47;;;11.60;97.30;;;;;;5074318;28;20167;-83
2021/10/08 02:16:06;;;;;;;17.33;6.00;;;11.60;97.30;;;;;;5072894;28;20724;-83
2021/10/08 02:18:31;;;;;;;9.53;6.00;;;11.60;97.30;;;;;;5073127;28;20202;-83
2021/10/08 02:20:57;;;;;;;10.87;6.20;;;11.60;97.30;;;;;;5071925;28;20223;-83
2021/10/08 02:23:22;;;;;;;11.60;6.10;;;11.60;97.30;;;;;;5071310;28;20266;-82
2021/10/08 02:25:48;;;;;;;14.27;6.50;;;11.60;97.30;;;;;;5071924;28;20183;-83
2021/10/08 02:28:13;;;;;;;10.97;6.40;;;11.60;97.30;;;;;;5073577;28;20187;-83
2021/10/08 02:30:39;;;;;;;12.83;6.70;;;11.60;97.30;;;;;;5073225;28;20241;-83
2021/10/08 02:33:04;;;;;;;11.33;6.43;;;11.60;97.30;;;;;;5074035;28;20269;-83
2021/10/08 02:35:30;;;;;;;10.33;6.40;;;11.60;97.30;;;;;;5073329;28;20199;-83
2021/10/08 02:37:55;;;;;;;10.80;6.67;;;11.60;97.30;;;;;;5072739;28;20207;-82
2021/10/08 02:40:21;;;;;;;12.70;7.33;;;11.60;97.30;;;;;;5072627;28;20262;-83
2021/10/08 02:42:46;;;;;;;10.33;5.97;;;11.60;97.30;;;;;;5073682;28;20163;-82
2021/10/08 02:45:12;;;;;;;10.90;6.73;;;11.60;97.30;;;;;;5071560;28;20175;-83
2021/10/08 02:47:38;;;;;;;14.23;7.47;;;11.60;97.30;;;;;;5071789;28;20182;-81
2021/10/08 02:50:04;;;;;;;13.80;7.37;;;11.70;97.30;;;;;;5072509;28;20230;-82
2021/10/08 02:52:30;;;;;;;11.37;6.57;;;11.70;97.30;;;;;;5072280;28;20175;-82
2021/10/08 02:54:55;;;;;;;16.10;7.30;;;11.70;97.30;;;;;;5067830;28;20983;-82
2021/10/08 02:57:21;;;;;;;15.43;6.50;;;11.70;97.30;;;;;;5073261;28;20198;-81
2021/10/08 02:59:46;;;;;;;14.27;7.00;;;11.70;97.30;;;;;;5072378;28;20191;-81
2021/10/08 03:02:12;;;;;;;13.90;7.67;;;11.70;97.30;;;;;;5073199;28;20183;-83
2021/10/08 03:04:37;;;;;;;18.63;7.83;;;11.70;97.30;;;;;;5072208;28;20273;-81
2021/10/08 03:07:03;;;;;;;13.50;7.50;;;11.70;97.30;;;;;;5072053;28;20186;-83
2021/10/08 03:09:28;;;;;;;13.40;6.33;;;11.70;97.30;;;;;;5072888;28;20185;-82
2021/10/08 03:11:54;;;;;;;16.87;8.17;;;11.70;97.30;;;;;;5071611;28;20175;-81
2021/10/08 03:14:19;;;;;;;12.50;7.10;;;11.70;97.30;;;;;;5071401;28;20198;-82
2021/10/08 03:16:45;;;;;;;14.87;8.00;;;11.70;97.30;;;;;;5074477;28;20171;-83
2021/10/08 03:19:10;;;;;;;14.47;6.70;;;11.70;97.30;;;;;;5079776;28;20171;-83
2021/10/08 03:21:36;;;;;;;14.90;7.37;;;11.70;97.30;;;;;;5079783;28;20310;-83
2021/10/08 03:24:01;;;;;;;13.23;7.00;;;11.70;97.30;;;;;;5079357;28;20167;-82
2021/10/08 03:26:27;;;;;;;12.57;7.53;;;11.70;97.30;;;;;;5079637;28;20641;-83
2021/10/08 03:28:53;;;;;;;15.20;7.60;;;11.70;97.30;;;;;;5078913;28;20641;-84
2021/10/08 03:31:18;;;;;;;15.60;8.07;;;11.60;97.30;;;;;;5078228;28;20201;-83
2021/10/08 03:33:44;;;;;;;18.27;7.97;;;11.60;97.30;;;;;;5078073;28;20175;-83
2021/10/08 03:36:16;;;;;;;18.70;8.27;;;11.50;97.30;;;;;;5078322;28;20210;-84
2021/10/08 03:38:41;;;;;;;14.50;8.23;;;11.50;97.30;;;;;;5079929;28;20182;-83
2021/10/08 03:41:12;;;;;;;14.13;8.27;;;11.50;97.30;;;;;;5078795;28;20742;-84
2021/10/08 03:43:40;;;;;;;19.47;8.90;;;11.50;97.30;;;;;;5077662;28;20168;-83
2021/10/08 03:46:08;;;;;;;17.97;9.23;;;11.40;97.30;;;;;;5078776;28;20507;-83
2021/10/08 03:49:00;;;;;;;15.87;8.60;;;11.40;97.30;;;;;;5072120;28;20472;-83
2021/10/08 03:51:22;;;;;;;16.20;8.20;;;11.40;97.30;;;;;;5062029;28;20450;-82
2021/10/08 03:53:48;;;;;;;16.40;9.30;;;11.30;97.30;;;;;;5062887;28;20414;-84
2021/10/08 03:56:13;;;;;;;15.60;9.00;;;11.30;97.30;;;;;;5071211;28;20198;-82
2021/10/08 03:58:39;;;;;;;16.63;8.20;;;11.20;97.30;;;;;;5064011;28;20201;-81
2021/10/08 04:01:04;;;;;;;16.83;8.50;;;11.20;97.30;;;;;;5059082;28;20297;-83
2021/10/08 04:03:30;;;;;;;18.30;9.30;;;11.20;97.30;;;;;;5074876;28;20183;-84
2021/10/08 04:05:55;;;;;;;20.50;10.07;;;11.20;97.30;;;;;;5074998;28;20275;-83
2021/10/08 04:08:21;;;;;;;16.20;9.23;;;11.10;97.30;;;;;;5094950;28;20246;-83
2021/10/08 04:10:47;;;;;;;19.30;9.27;;;11.10;97.30;;;;;;5064806;28;20208;-83
2021/10/08 04:13:12;;;;;;;20.07;9.83;;;11.10;97.30;;;;;;5066578;28;20186;-83
2021/10/08 04:15:38;;;;;;;18.60;8.70;;;11.10;97.30;;;;;;5068141;28;20281;-81
2021/10/08 04:18:04;;;;;;;18.67;9.60;;;11.10;97.30;;;;;;5067919;28;20186;-82
2021/10/08 04:20:29;;;;;;;16.30;9.10;;;11.10;97.30;;;;;;5066368;28;20218;-83
2021/10/08 04:22:55;;;;;;;20.43;9.63;;;11.00;97.30;;;;;;5072680;28;20417;-82
2021/10/08 04:25:21;;;;;;;19.93;9.50;;;11.00;97.30;;;;;;5061484;28;20773;-82
2021/10/08 04:27:46;;;;;;;20.23;10.17;;;11.00;97.30;;;;;;5064109;28;20181;-83
2021/10/08 04:30:12;;;;;;;25.90;11.03;;;10.90;97.30;;;;;;5062555;28;20701;-84
2021/10/08 04:32:37;;;;;;;27.80;10.57;;;10.90;97.30;;;;;;5085999;28;20634;-83
2021/10/08 04:35:03;;;;;;;23.90;11.10;;;10.90;97.30;;;;;;5080031;28;20238;-83
2021/10/08 04:37:28;;;;;;;21.20;10.33;;;10.90;97.30;;;;;;5063320;28;20172;-83
2021/10/08 04:39:54;;;;;;;21.93;9.83;;;10.80;97.30;;;;;;5071924;28;20223;-81
2021/10/08 04:42:19;;;;;;;19.13;10.80;;;10.80;97.30;;;;;;5073737;28;20206;-82
2021/10/08 04:44:45;;;;;;;22.67;12.10;;;10.80;97.30;;;;;;5075558;28;20258;-82
2021/10/08 04:47:12;;;;;;;26.13;12.90;;;10.70;97.30;;;;;;5069084;28;20263;-82
2021/10/08 04:49:38;;;;;;;25.00;11.70;;;10.70;97.30;;;;;;5064132;28;20243;-83
2021/10/08 04:52:04;;;;;;;22.87;11.93;;;10.70;97.30;;;;;;5068815;28;21224;-83
2021/10/08 04:54:30;;;;;;;24.93;11.07;;;10.70;97.30;;;;;;5064475;28;20627;-82
2021/10/08 04:56:55;;;;;;;25.60;11.37;;;10.60;97.30;;;;;;5063591;28;20267;-82
2021/10/08 04:59:21;;;;;;;25.13;12.00;;;10.60;97.30;;;;;;5058808;28;20425;-83
2021/10/08 05:01:46;;;;;;;23.03;11.13;;;10.60;97.30;;;;;;5070359;28;20184;-83
2021/10/08 05:04:12;;;;;;;23.50;11.93;;;10.50;97.30;;;;;;5090535;28;20187;-82
2021/10/08 05:06:37;;;;;;;24.00;11.30;;;10.50;97.30;;;;;;5074005;28;20176;-81
2021/10/08 05:09:03;;;;;;;24.20;11.80;;;10.50;97.30;;;;;;5074598;28;20630;-83
2021/10/08 05:11:28;;;;;;;24.60;11.00;;;10.40;97.30;;;;;;5074564;28;20195;-82
2021/10/08 05:13:54;;;;;;;25.27;11.90;;;10.40;97.30;;;;;;5090866;28;20205;-83
2021/10/08 05:16:19;;;;;;;29.00;13.53;;;10.40;97.30;;;;;;5090180;28;20210;-84
2021/10/08 05:18:45;;;;;;;28.17;11.90;;;10.40;97.30;;;;;;5090572;28;20194;-84
2021/10/08 05:21:10;;;;;;;28.93;13.60;;;10.40;97.30;;;;;;5089330;28;20736;-82
2021/10/08 05:23:36;;;;;;;28.57;12.60;;;10.30;97.30;;;;;;5072802;28;20638;-81
2021/10/08 05:26:02;;;;;;;28.73;12.40;;;10.30;97.30;;;;;;5074438;28;20573;-83
2021/10/08 05:28:28;;;;;;;29.20;14.07;;;10.30;97.30;;;;;;5090413;28;20182;-81
2021/10/08 05:30:54;;;;;;;33.93;14.47;;;10.30;97.30;;;;;;5091320;28;20433;-83
2021/10/08 05:33:19;;;;;;;30.60;13.43;;;10.30;97.30;;;;;;5091555;28;20217;-84
2021/10/08 05:35:47;;;;;;;28.63;13.70;;;10.30;97.30;;;;;;5091029;28;20199;-83
2021/10/08 05:38:13;;;;;;;25.83;13.07;;;10.30;97.30;;;;;;5091792;28;20171;-84
2021/10/08 05:40:43;;;;;;;38.90;15.93;;;10.30;97.30;;;;;;5089592;28;21217;-82
2021/10/08 05:43:08;;;;;;;29.00;12.97;;;10.20;97.30;;;;;;5090553;28;20167;-84
2021/10/08 05:45:34;;;;;;;36.33;15.00;;;10.20;97.30;;;;;;5074055;28;20444;-81
2021/10/08 05:47:59;;;;;;;37.53;14.67;;;10.20;97.30;;;;;;5089779;28;20202;-83
2021/10/08 05:50:25;;;;;;;29.33;13.63;;;10.20;97.30;;;;;;5053568;28;20206;-80
2021/10/08 05:52:50;;;;;;;31.43;14.30;;;10.20;97.30;;;;;;5054677;28;20218;-83
2021/10/08 05:55:21;;;;;;;31.50;14.10;;;10.20;97.30;;;;;;5055521;28;20282;-84
2021/10/08 05:57:49;;;;;;;32.47;14.90;;;10.20;97.30;;;;;;5055900;28;20155;-81
2021/10/08 06:00:17;;;;;;;28.43;12.50;;;10.20;97.30;;;;;;5053988;28;20442;-83
2021/10/08 06:02:42;;;;;;;34.30;14.87;;;10.10;97.30;;;;;;5053498;28;20994;-82
2021/10/08 06:05:08;;;;;;;33.80;15.60;;;10.10;97.30;;;;;;5053784;28;20418;-83
2021/10/08 06:07:34;;;;;;;29.97;13.87;;;10.10;97.30;;;;;;5053022;28;20182;-82
2021/10/08 06:09:59;;;;;;;35.20;14.50;;;10.10;97.30;;;;;;5052871;28;20221;-83
2021/10/08 06:12:24;;;;;;;33.40;14.63;;;10.10;97.30;;;;;;5054148;28;20180;-83
2021/10/08 06:14:50;;;;;;;34.53;14.80;;;10.10;97.30;;;;;;5053573;28;20224;-83
2021/10/08 06:17:16;;;;;;;47.47;17.23;;;10.10;97.30;;;;;;5054821;28;20183;-84
2021/10/08 06:19:42;;;;;;;35.93;14.47;;;10.10;97.30;;;;;;5053547;28;20611;-83
2021/10/08 06:22:08;;;;;;;33.50;15.00;;;10.10;97.30;;;;;;5053107;28;20226;-83
2021/10/08 06:24:34;;;;;;;32.53;14.33;;;10.10;97.30;;;;;;5053335;28;20445;-84
2021/10/08 06:26:59;;;;;;;35.77;14.33;;;10.10;97.30;;;;;;5053064;28;20570;-83
2021/10/08 06:29:25;;;;;;;37.63;14.53;;;10.10;97.30;;;;;;5052029;28;20174;-82
2021/10/08 06:31:50;;;;;;;36.90;16.10;;;10.10;97.30;;;;;;5053821;28;20646;-83
2021/10/08 06:34:16;;;;;;;40.00;16.13;;;10.10;97.30;;;;;;5052315;28;20722;-83
2021/10/08 06:36:41;;;;;;;51.60;16.23;;;10.10;97.30;;;;;;5052690;28;20172;-81
2021/10/08 06:39:07;;;;;;;44.27;17.33;;;10.10;97.30;;;;;;5055075;28;20237;-84
2021/10/08 06:41:33;;;;;;;43.67;17.00;;;10.10;97.30;;;;;;5053662;28;20195;-83
2021/10/08 06:43:58;;;;;;;40.63;17.77;;;10.20;97.30;;;;;;5053631;28;20263;-84
2021/10/08 06:46:31;;;;;;;43.03;18.30;;;10.20;97.30;;;;;;5053092;28;20205;-82
2021/10/08 06:48:57;;;;;;;56.93;19.30;;;10.20;97.30;;;;;;5053686;28;20198;-81
2021/10/08 06:51:25;;;;;;;42.77;16.93;;;10.20;97.30;;;;;;5051895;28;20948;-84
2021/10/08 06:53:50;;;;;;;46.00;18.17;;;10.30;97.30;;;;;;5052938;28;20236;-83
2021/10/08 06:56:18;;;;;;;43.27;18.40;;;10.30;97.30;;;;;;5053252;28;20529;-83
2021/10/08 06:58:44;;;;;;;46.77;20.00;;;10.40;97.30;;;;;;5052551;28;20168;-81
2021/10/08 07:01:09;;;;;;;49.87;19.03;;;10.40;97.30;;;;;;5053658;28;20489;-84
2021/10/08 07:03:35;;;;;;;50.87;20.10;;;10.40;97.30;;;;;;5053095;28;20198;-84
2021/10/08 07:06:00;;;;;;;47.37;19.80;;;10.50;97.30;;;;;;5053270;28;20559;-83
2021/10/08 07:08:25;;;;;;;56.13;20.07;;;10.50;97.30;;;;;;5052618;28;20184;-82
2021/10/08 07:10:51;;;;;;;53.20;19.93;;;10.60;97.30;;;;;;5052803;28;20397;-83
2021/10/08 07:13:16;;;;;;;52.27;20.83;;;10.60;97.30;;;;;;5052393;28;20176;-84
2021/10/08 07:15:42;;;;;;;45.43;18.37;;;10.60;97.30;;;;;;5051673;28;20254;-83
2021/10/08 07:18:10;;;;;;;46.90;21.77;;;10.60;97.30;;;;;;5051899;28;20180;-84
2021/10/08 07:20:36;;;;;;;57.17;21.57;;;10.70;97.30;;;;;;5051551;28;20567;-82
2021/10/08 07:23:02;;;;;;;48.97;19.63;;;10.70;97.30;;;;;;5051953;28;20476;-83
2021/10/08 07:25:29;;;;;;;55.43;22.30;;;10.70;97.30;;;;;;5052353;28;20697;-83
2021/10/08 07:27:56;;;;;;;58.07;21.63;;;10.80;97.30;;;;;;5052889;28;20484;-83
2021/10/08 07:30:21;;;;;;;59.30;20.70;;;10.80;97.30;;;;;;5053231;28;20492;-82
2021/10/08 07:32:48;;;;;;;54.93;21.93;;;10.90;97.30;;;;;;5051759;28;20418;-83
2021/10/08 07:35:19;;;;;;;48.37;21.20;;;10.90;97.30;;;;;;5052034;28;20602;-83
2021/10/08 07:37:48;;;;;;;57.43;21.40;;;11.00;97.30;;;;;;5052433;28;20584;-84
2021/10/08 07:40:19;;;;;;;61.87;23.60;;;11.00;97.30;;;;;;5052459;28;20487;-84
2021/10/08 07:42:52;;;;;;;54.30;22.00;;;11.10;97.30;;;;;;5052601;28;20395;-84
2021/10/08 07:45:20;;;;;;;58.33;23.00;;;11.10;97.30;;;;;;5051452;28;20407;-83
2021/10/08 07:47:48;;;;;;;57.70;24.03;;;11.10;97.30;;;;;;5051510;28;20418;-84
2021/10/08 07:50:21;;;;;;;56.13;23.97;;;11.20;97.30;;;;;;5054146;28;20517;-83
2021/10/08 07:52:49;;;;;;;67.87;24.17;;;11.20;97.30;;;;;;5053432;28;20445;-82
2021/10/08 07:55:22;;;;;;;54.67;23.67;;;11.30;97.30;;;;;;5066887;28;20485;-83
2021/10/08 07:57:51;;;;;;;63.47;24.67;;;11.30;97.30;;;;;;5072282;28;20406;-83
2021/10/08 08:00:21;;;;;;;56.97;22.40;;;11.40;97.30;;;;;;5071564;28;20436;-83
2021/10/08 08:02:49;;;;;;;62.47;25.97;;;11.40;97.30;;;;;;5071327;28;20963;-82
2021/10/08 08:05:20;;;;;;;65.47;24.00;;;11.50;97.30;;;;;;5074234;28;20504;-85
2021/10/08 08:07:58;;;;;;;62.27;23.53;;;11.60;97.30;;;;;;5076595;28;20436;-81
2021/10/08 08:10:28;;;;;;;61.53;23.50;;;11.80;97.30;;;;;;5075255;28;20517;-83
2021/10/08 08:12:58;;;;;;;56.60;24.03;;;11.80;97.30;;;;;;5077275;28;20405;-83
2021/10/08 08:15:28;;;;;;;57.17;23.43;;;11.80;97.30;;;;;;5077338;28;20433;-83
2021/10/08 08:17:56;;;;;;;54.60;23.23;;;11.80;97.30;;;;;;5076446;28;20409;-83
2021/10/08 08:20:23;;;;;;;60.20;23.77;;;11.80;97.30;;;;;;5076612;28;20874;-83
2021/10/08 08:22:48;;;;;;;63.27;25.00;;;11.80;97.30;;;;;;5076666;28;20507;-83
2021/10/08 08:25:25;;;;;;;58.27;24.40;;;11.80;97.30;;;;;;5076911;28;20502;-82
2021/10/08 08:27:50;;;;;;;55.37;22.23;;;11.90;97.30;;;;;;5074729;28;20175;-83
2021/10/08 08:30:18;;;;;;;62.37;22.63;;;11.90;97.30;;;;;;5074901;28;20966;-83
2021/10/08 08:32:44;;;;;;;66.87;24.40;;;12.00;97.30;;;;;;5075467;28;20194;-82
2021/10/08 08:35:09;;;;;;;56.53;24.57;;;12.10;97.30;;;;;;5075377;28;20473;-83
2021/10/08 08:37:37;;;;;;;56.20;23.80;;;12.20;97.30;;;;;;5076147;28;20198;-83
2021/10/08 08:40:06;;;;;;;60.80;24.03;;;12.20;97.30;;;;;;5076256;28;20294;-83
2021/10/08 08:42:35;;;;;;;59.63;23.83;;;12.30;97.30;;;;;;5068142;28;20421;-83
2021/10/08 08:45:07;;;;;;;60.77;25.27;;;12.40;97.30;;;;;;5068694;28;20499;-83
2021/10/08 08:47:34;;;;;;;63.27;24.63;;;12.50;97.30;;;;;;5084732;28;20414;-82
2021/10/08 08:50:00;;;;;;;58.03;24.00;;;12.50;97.30;;;;;;5073397;28;20821;-84
2021/10/08 08:52:28;;;;;;;54.53;22.90;;;12.60;97.30;;;;;;5065654;28;20417;-83
2021/10/08 08:54:57;;;;;;;61.80;25.40;;;12.60;97.30;;;;;;5063871;28;20827;-83
2021/10/08 08:57:23;;;;;;;60.37;25.37;;;12.60;97.30;;;;;;5084912;28;20425;-84
2021/10/08 09:00:08;;;;;;;60.30;25.53;;;12.60;97.30;;;;;;5069625;28;20429;-83
2021/10/08 09:02:38;;;;;;;66.70;26.07;;;12.60;97.30;;;;;;5077407;28;20167;-86
2021/10/08 09:05:04;;;;;;;66.50;25.80;;;12.60;97.30;;;;;;5070195;28;20401;-83
2021/10/08 09:07:37;;;;;;;66.77;25.97;;;12.60;97.30;;;;;;5083403;28;20514;-83
2021/10/08 09:10:30;;;;;;;68.03;26.10;;;12.60;97.30;;;;;;5089825;28;20439;-83
2021/10/08 09:12:57;;;;;;;66.93;26.27;;;12.70;97.30;;;;;;5043717;28;20416;-84
2021/10/08 09:15:44;;;;;;;68.80;27.60;;;12.70;97.30;;;;;;5082599;28;20583;-84
2021/10/08 09:18:12;;;;;;;68.53;24.37;;;12.80;97.30;;;;;;5084298;28;20405;-83
2021/10/08 09:20:39;;;;;;;60.77;24.70;;;12.90;97.30;;;;;;5090492;28;20968;-82
2021/10/08 09:23:06;;;;;;;59.20;25.57;;;12.90;97.30;;;;;;5058490;28;20406;-84
2021/10/08 09:25:38;;;;;;;70.77;26.67;;;12.90;97.30;;;;;;5065773;28;20470;-82
2021/10/08 09:28:11;;;;;;;66.43;25.27;;;13.00;97.30;;;;;;5065017;28;20442;-82
2021/10/08 09:30:46;;;;;;;64.23;25.53;;;13.00;97.30;;;;;;5053667;28;20442;-84
2021/10/08 09:33:19;;;;;;;60.60;25.20;;;13.10;97.30;;;;;;5055108;28;20479;-83
2021/10/08 09:35:46;;;;;;;63.70;25.37;;;13.10;97.30;;;;;;5069737;28;20450;-83
2021/10/08 09:38:14;;;;;;;66.37;25.43;;;13.20;97.30;;;;;;5067469;28;20413;-81
2021/10/08 09:41:00;;;;;;;67.17;25.33;;;13.30;97.30;;;;;;5077123;28;20432;-82
2021/10/08 09:43:28;;;;;;;60.47;25.70;;;13.30;97.30;;;;;;5073935;28;20413;-84
2021/10/08 09:46:03;;;;;;;57.20;23.73;;;13.30;97.30;;;;;;5074298;28;20530;-82
2021/10/08 09:48:35;;;;;;;65.57;25.87;;;13.30;97.30;;;;;;5079458;28;20418;-84
2021/10/08 09:51:09;;;;;;;61.97;24.27;;;13.40;97.30;;;;;;5090217;28;20440;-83
2021/10/08 09:53:37;;;;;;;53.40;23.10;;;13.40;97.30;;;;;;5074366;28;20411;-83
2021/10/08 09:56:23;;;;;;;59.93;25.97;;;13.40;97.30;;;;;;5075635;28;20449;-82
2021/10/08 09:58:52;;;;;;;61.57;24.20;;;13.40;97.30;;;;;;5058336;28;20410;-83
2021/10/08 10:01:26;;;;;;;68.53;25.97;;;13.40;97.30;;;;;;5074681;28;20428;-83
2021/10/08 10:03:53;;;;;;;55.77;21.63;;;13.40;97.30;;;;;;5090522;28;20409;-84
2021/10/08 10:06:20;;;;;;;56.30;23.40;;;13.50;97.30;;;;;;5095606;28;20432;-81
2021/10/08 10:08:48;;;;;;;78.43;30.30;;;13.60;97.30;;;;;;5095387;28;20412;-83
2021/10/08 10:11:19;;;;;;;61.53;24.63;;;13.70;97.30;;;;;;5094171;28;20438;-84
2021/10/08 10:13:46;;;;;;;54.67;23.43;;;13.70;97.30;;;;;;5079339;28;20784;-82
2021/10/08 10:16:16;;;;;;;59.83;23.50;;;13.70;97.30;;;;;;5073038;28;20536;-83
2021/10/08 10:18:46;;;;;;;58.00;24.10;;;13.60;97.30;;;;;;5075435;28;20433;-83
2021/10/08 10:21:12;;;;;;;64.20;23.93;;;13.60;97.30;;;;;;5074882;28;20475;-84
2021/10/08 10:23:39;;;;;;;59.40;23.37;;;13.60;97.30;;;;;;5089011;28;20423;-83
2021/10/08 10:26:08;;;;;;;61.93;26.20;;;13.60;97.30;;;;;;5092773;28;20405;-84
2021/10/08 10:28:38;;;;;;;63.63;23.37;;;13.60;97.30;;;;;;5082903;28;20424;-81
2021/10/08 10:31:08;;;;;;;69.90;26.37;;;13.60;97.30;;;;;;5083482;28;20481;-84
2021/10/08 10:33:33;;;;;;;65.30;24.77;;;13.60;97.30;;;;;;5080343;28;20505;-83
2021/10/08 10:36:00;;;;;;;66.37;25.70;;;13.60;97.30;;;;;;5078904;28;20519;-83
2021/10/08 10:38:33;;;;;;;64.47;24.37;;;13.60;97.30;;;;;;5085443;28;20167;-83
2021/10/08 10:41:07;;;;;;;61.33;24.43;;;13.70;97.30;;;;;;5079254;28;20524;-84
2021/10/08 10:43:33;;;;;;;56.57;24.07;;;13.80;97.30;;;;;;5073648;28;20997;-83
2021/10/08 10:46:20;;;;;;;62.63;24.47;;;13.80;97.30;;;;;;5072412;28;20413;-83
2021/10/08 10:52:01;;;;;;;63.23;24.20;;;13.90;97.30;;;;;;5053750;28;20406;-84
2021/10/08 10:54:43;;;;;;;59.53;23.80;;;13.90;97.30;;;;;;5054660;28;20939;-82
2021/10/08 10:57:11;;;;;;;64.07;25.07;;;13.90;97.30;;;;;;5054325;28;20479;-83
2021/10/08 10:59:38;;;;;;;64.53;25.20;;;13.90;97.30;;;;;;5054717;28;20437;-83
2021/10/08 11:02:06;;;;;;;56.20;22.30;;;14.00;97.30;;;;;;5053366;28;20861;-82
2021/10/08 11:04:35;;;;;;;57.70;23.30;;;14.10;97.30;;;;;;5053141;28;20445;-83
2021/10/08 11:07:05;;;;;;;63.00;25.00;;;14.20;97.30;;;;;;5052781;28;20465;-83
2021/10/08 11:09:31;;;;;;;60.83;21.90;;;14.40;97.30;;;;;;5051666;28;20418;-82
2021/10/08 11:12:27;;;;;;;48.30;20.03;;;14.60;97.30;;;;;;5051714;28;20842;-84
2021/10/08 11:15:15;;;;;;;57.30;22.83;;;14.80;97.30;;;;;;5052138;28;20461;-82
2021/10/08 11:17:49;;;;;;;58.87;23.30;;;15.00;97.30;;;;;;5052534;28;20414;-83
2021/10/08 11:23:04;;;;;;;59.17;24.93;;;15.20;97.30;;;;;;5055090;28;20379;-84
2021/10/08 11:25:31;;;;;;;58.20;23.50;;;15.20;97.30;;;;;;5053968;28;20517;-82
2021/10/08 11:27:57;;;;;;;59.47;23.83;;;15.20;97.30;;;;;;5052633;28;20413;-84
2021/10/08 11:30:28;;;;;;;55.87;24.50;;;15.30;97.30;;;;;;5052293;28;20438;-84
2021/10/08 11:32:57;;;;;;;53.10;22.67;;;15.40;97.30;;;;;;5051602;28;20499;-84
2021/10/08 11:35:34;;;;;;;52.50;23.03;;;15.60;97.30;;;;;;5051316;28;20496;-86
2021/10/08 11:38:00;;;;;;;60.97;24.07;;;15.70;97.30;;;;;;5053014;28;20406;-84
2021/10/08 11:40:32;;;;;;;61.00;24.83;;;15.70;97.30;;;;;;5055248;28;20426;-85
2021/10/08 11:43:05;;;;;;;65.43;26.73;;;15.70;97.30;;;;;;5056103;28;20406;-83
2021/10/08 11:45:40;;;;;;;55.97;24.20;;;15.80;97.30;;;;;;5056872;28;20422;-84
2021/10/08 11:48:21;;;;;;;56.37;24.00;;;15.80;97.30;;;;;;5057970;28;20428;-84
2021/10/08 11:51:02;;;;;;;52.70;23.30;;;15.80;97.30;;;;;;5076253;28;20479;-85
2021/10/08 11:53:49;;;;;;;66.93;23.90;;;16.00;97.30;;;;;;5076361;28;20433;-84
2021/10/08 11:56:29;;;;;;;61.77;25.23;;;16.10;97.30;;;;;;5075580;28;20484;-84
2021/10/08 11:58:57;;;;;;;59.93;25.20;;;16.10;97.30;;;;;;5074947;28;20459;-83
2021/10/08 12:01:30;;;;;;;55.40;23.60;;;16.30;97.30;;;;;;5074658;28;20433;-84
2021/10/08 12:03:56;;;;;;;53.13;24.83;;;16.50;97.30;;;;;;5075423;28;20496;-83
2021/10/08 12:06:29;;;;;;;53.33;25.00;;;16.60;97.30;;;;;;5074886;28;20467;-84
2021/10/08 12:09:03;;;;;;;56.70;24.80;;;16.70;97.30;;;;;;5076771;28;20243;-83
2021/10/08 12:11:29;;;;;;;67.10;25.97;;;16.90;97.30;;;;;;5077867;28;20519;-84
2021/10/08 12:13:58;;;;;;;64.17;26.60;;;17.10;97.30;;;;;;5076513;28;20424;-84
2021/10/08 12:16:26;;;;;;;51.30;23.20;;;17.30;97.30;;;;;;5075567;28;20457;-84
2021/10/08 12:18:54;;;;;;;53.50;25.27;;;17.40;97.30;;;;;;5075172;28;20428;-85
2021/10/08 12:21:23;;;;;;;48.70;21.80;;;17.40;97.30;;;;;;5075937;28;20463;-85
2021/10/08 12:24:10;;;;;;;45.87;22.27;;;17.50;97.30;;;;;;5075206;28;20531;-84
2021/10/08 12:26:43;;;;;;;50.93;24.43;;;17.50;97.30;;;;;;5075056;28;20499;-85
2021/10/08 12:29:12;;;;;;;51.40;22.87;;;17.50;97.30;;;;;;5074360;28;20436;-85
2021/10/08 12:31:52;;;;;;;50.97;24.57;;;17.50;97.30;;;;;;5074754;28;20445;-82
2021/10/08 12:34:47;;;;;;;47.47;21.83;;;17.60;97.30;;;;;;5077890;28;20892;-85
2021/10/08 12:37:17;;;;;;;40.03;19.20;;;17.70;97.30;;;;;;5077156;28;20951;-85
2021/10/08 12:40:11;;;;;;;35.10;15.27;;;17.70;97.00;;;;;;5075086;28;20421;-85
2021/10/08 12:42:46;;;;;;;31.53;14.90;;;17.60;96.30;;;;;;5076023;28;20405;-86